Portada
METAR-TAF:

METAR-TAF

Aeroports :

Cascades Victòria, Zimbabwe

latitud: 18-06S, longitud: 025-51E, altitud: 1061 m

Observació

L'informe es va fer fa 31 minuts, a les 06:00 UTC
Vent 10 kt del Sud-Est
Temperatura 14°C
Humitat 77%
Pressió 1026 hPa
Visibilitat 10 km o més
sense núvols per sota de 1500 mi sense presència de cumulonimbus.

METAR: FVFA 250600Z 13010KT CAVOK 14/10 Q1026 NOSIG

Hora: 08:31 (06:31 UTC)


TAF: manca

Observacions i pronòstics meteorològics de més de 4000 aeroports (METAR i TAF).

Les estacions disponibles són els punts grocs i vermells al mapa.

Posi el ratolí al punt desitjat per veure el nom de l'estació.

Feu clic per veure les observacions i els pronòstics meteorològics.

Per canviar el mapa: feu clic els botons verds amb una creu de color negre per apropar; al botó verd amb un guió per allunyar la imatge; o en les fletxes verdes per a mapes adjacents.


METAR-TAF: